sensor_id;sensor_type;location;lat;lon;timestamp;temperature;humidity
51175;DHT22;37240;50.104;20.010;2024-03-08T00:04:58;5.10;96.20
51175;DHT22;37240;50.104;20.010;2024-03-08T00:09:59;5.20;95.70
51175;DHT22;37240;50.104;20.010;2024-03-08T00:14:59;5.20;95.80
51175;DHT22;37240;50.104;20.010;2024-03-08T00:20:00;5.20;95.40
51175;DHT22;37240;50.104;20.010;2024-03-08T00:25:00;5.20;95.30
51175;DHT22;37240;50.104;20.010;2024-03-08T00:30:01;5.20;95.60
51175;DHT22;37240;50.104;20.010;2024-03-08T00:35:02;5.20;95.40
51175;DHT22;37240;50.104;20.010;2024-03-08T00:40:03;5.30;95.10
51175;DHT22;37240;50.104;20.010;2024-03-08T00:45:04;5.40;95.00
51175;DHT22;37240;50.104;20.010;2024-03-08T00:50:05;5.40;94.50
51175;DHT22;37240;50.104;20.010;2024-03-08T00:55:06;5.40;94.90
51175;DHT22;37240;50.104;20.010;2024-03-08T01:00:07;5.60;94.50
51175;DHT22;37240;50.104;20.010;2024-03-08T01:05:08;5.40;95.00
51175;DHT22;37240;50.104;20.010;2024-03-08T01:10:09;5.40;94.60
51175;DHT22;37240;50.104;20.010;2024-03-08T01:15:10;5.30;95.00
51175;DHT22;37240;50.104;20.010;2024-03-08T01:20:11;5.40;94.60
51175;DHT22;37240;50.104;20.010;2024-03-08T01:25:13;5.50;94.70
51175;DHT22;37240;50.104;20.010;2024-03-08T01:30:13;5.40;94.30
51175;DHT22;37240;50.104;20.010;2024-03-08T01:35:14;5.40;94.00
51175;DHT22;37240;50.104;20.010;2024-03-08T01:40:15;5.40;93.60
51175;DHT22;37240;50.104;20.010;2024-03-08T01:45:15;5.40;93.80
51175;DHT22;37240;50.104;20.010;2024-03-08T01:50:16;5.40;93.50
51175;DHT22;37240;50.104;20.010;2024-03-08T01:55:16;5.40;93.60
51175;DHT22;37240;50.104;20.010;2024-03-08T02:00:18;5.40;93.80
51175;DHT22;37240;50.104;20.010;2024-03-08T02:05:19;5.40;93.80
51175;DHT22;37240;50.104;20.010;2024-03-08T02:10:20;5.30;93.30
51175;DHT22;37240;50.104;20.010;2024-03-08T02:15:20;5.20;93.20
51175;DHT22;37240;50.104;20.010;2024-03-08T02:20:21;5.30;93.40
51175;DHT22;37240;50.104;20.010;2024-03-08T02:25:21;5.30;93.50
51175;DHT22;37240;50.104;20.010;2024-03-08T02:30:22;5.20;93.80
51175;DHT22;37240;50.104;20.010;2024-03-08T02:35:22;5.10;93.90
51175;DHT22;37240;50.104;20.010;2024-03-08T02:40:23;5.20;94.10
51175;DHT22;37240;50.104;20.010;2024-03-08T02:45:24;5.20;94.00
51175;DHT22;37240;50.104;20.010;2024-03-08T02:50:24;5.20;93.90
51175;DHT22;37240;50.104;20.010;2024-03-08T02:55:25;5.20;93.80
51175;DHT22;37240;50.104;20.010;2024-03-08T03:00:25;5.10;93.70
51175;DHT22;37240;50.104;20.010;2024-03-08T03:05:26;5.10;93.80
51175;DHT22;37240;50.104;20.010;2024-03-08T03:10:26;5.20;93.20
51175;DHT22;37240;50.104;20.010;2024-03-08T03:15:27;5.10;93.60
51175;DHT22;37240;50.104;20.010;2024-03-08T03:20:27;5.30;93.80
51175;DHT22;37240;50.104;20.010;2024-03-08T03:25:28;5.30;93.70
51175;DHT22;37240;50.104;20.010;2024-03-08T03:30:28;5.20;93.90
51175;DHT22;37240;50.104;20.010;2024-03-08T03:35:29;5.10;94.10
51175;DHT22;37240;50.104;20.010;2024-03-08T03:40:29;5.20;94.10
51175;DHT22;37240;50.104;20.010;2024-03-08T03:45:31;5.20;93.80
51175;DHT22;37240;50.104;20.010;2024-03-08T03:50:31;5.10;93.80
51175;DHT22;37240;50.104;20.010;2024-03-08T03:55:32;5.00;93.90
51175;DHT22;37240;50.104;20.010;2024-03-08T04:00:32;5.00;93.90
51175;DHT22;37240;50.104;20.010;2024-03-08T04:05:33;4.90;94.30
51175;DHT22;37240;50.104;20.010;2024-03-08T04:10:33;4.90;94.50
51175;DHT22;37240;50.104;20.010;2024-03-08T04:15:34;5.00;94.30
51175;DHT22;37240;50.104;20.010;2024-03-08T04:20:35;4.90;94.30
51175;DHT22;37240;50.104;20.010;2024-03-08T04:25:35;5.00;94.30
51175;DHT22;37240;50.104;20.010;2024-03-08T04:30:36;5.00;94.30
51175;DHT22;37240;50.104;20.010;2024-03-08T04:35:36;5.00;94.50
51175;DHT22;37240;50.104;20.010;2024-03-08T04:40:37;4.80;94.80
51175;DHT22;37240;50.104;20.010;2024-03-08T04:45:37;4.70;95.20
51175;DHT22;37240;50.104;20.010;2024-03-08T04:50:38;4.70;95.10
51175;DHT22;37240;50.104;20.010;2024-03-08T04:55:38;4.70;95.20
51175;DHT22;37240;50.104;20.010;2024-03-08T05:00:39;4.70;95.20
51175;DHT22;37240;50.104;20.010;2024-03-08T05:05:40;4.80;95.20
51175;DHT22;37240;50.104;20.010;2024-03-08T05:10:40;4.70;95.00
51175;DHT22;37240;50.104;20.010;2024-03-08T05:15:41;4.70;95.10
51175;DHT22;37240;50.104;20.010;2024-03-08T05:20:41;4.70;95.30
51175;DHT22;37240;50.104;20.010;2024-03-08T05:25:42;4.50;95.70
51175;DHT22;37240;50.104;20.010;2024-03-08T05:30:42;4.40;96.00
51175;DHT22;37240;50.104;20.010;2024-03-08T05:35:43;4.30;96.20
51175;DHT22;37240;50.104;20.010;2024-03-08T05:40:43;4.50;96.10
51175;DHT22;37240;50.104;20.010;2024-03-08T05:45:44;4.50;96.20
51175;DHT22;37240;50.104;20.010;2024-03-08T05:50:45;4.50;96.50
51175;DHT22;37240;50.104;20.010;2024-03-08T05:55:45;4.50;96.30
51175;DHT22;37240;50.104;20.010;2024-03-08T06:00:46;4.50;96.10
51175;DHT22;37240;50.104;20.010;2024-03-08T06:05:47;4.60;96.20
51175;DHT22;37240;50.104;20.010;2024-03-08T06:10:48;4.60;96.10
51175;DHT22;37240;50.104;20.010;2024-03-08T06:15:48;4.60;96.10
51175;DHT22;37240;50.104;20.010;2024-03-08T06:20:49;4.50;95.80
51175;DHT22;37240;50.104;20.010;2024-03-08T06:25:49;4.50;95.60
51175;DHT22;37240;50.104;20.010;2024-03-08T06:30:50;4.60;95.90
51175;DHT22;37240;50.104;20.010;2024-03-08T06:35:51;4.70;95.80
51175;DHT22;37240;50.104;20.010;2024-03-08T06:40:52;4.70;95.70
51175;DHT22;37240;50.104;20.010;2024-03-08T06:45:52;4.60;95.70
51175;DHT22;37240;50.104;20.010;2024-03-08T06:50:53;4.70;95.60
51175;DHT22;37240;50.104;20.010;2024-03-08T06:55:54;4.70;95.30
51175;DHT22;37240;50.104;20.010;2024-03-08T07:00:54;4.70;95.40
51175;DHT22;37240;50.104;20.010;2024-03-08T07:05:56;4.60;95.10
51175;DHT22;37240;50.104;20.010;2024-03-08T07:10:56;4.70;95.00
51175;DHT22;37240;50.104;20.010;2024-03-08T07:15:57;4.70;95.00
51175;DHT22;37240;50.104;20.010;2024-03-08T07:21:00;4.70;94.90
51175;DHT22;37240;50.104;20.010;2024-03-08T07:26:00;4.60;94.80
51175;DHT22;37240;50.104;20.010;2024-03-08T07:31:01;4.50;94.90
51175;DHT22;37240;50.104;20.010;2024-03-08T07:36:02;4.50;95.10
51175;DHT22;37240;50.104;20.010;2024-03-08T07:41:02;4.60;94.80
51175;DHT22;37240;50.104;20.010;2024-03-08T07:46:03;4.70;94.20
51175;DHT22;37240;50.104;20.010;2024-03-08T07:51:04;4.80;94.20
51175;DHT22;37240;50.104;20.010;2024-03-08T07:56:05;4.80;94.00
51175;DHT22;37240;50.104;20.010;2024-03-08T08:01:06;4.90;93.90
51175;DHT22;37240;50.104;20.010;2024-03-08T08:06:07;5.00;93.50
51175;DHT22;37240;50.104;20.010;2024-03-08T08:11:07;5.10;93.40
51175;DHT22;37240;50.104;20.010;2024-03-08T08:16:08;5.20;92.90
51175;DHT22;37240;50.104;20.010;2024-03-08T08:21:09;5.20;92.80
51175;DHT22;37240;50.104;20.010;2024-03-08T08:26:10;5.30;92.50
51175;DHT22;37240;50.104;20.010;2024-03-08T08:31:11;5.40;91.90
51175;DHT22;37240;50.104;20.010;2024-03-08T08:36:12;5.50;91.80
51175;DHT22;37240;50.104;20.010;2024-03-08T08:41:12;5.60;91.40
51175;DHT22;37240;50.104;20.010;2024-03-08T08:46:13;5.60;91.00
51175;DHT22;37240;50.104;20.010;2024-03-08T08:51:13;5.70;91.20
51175;DHT22;37240;50.104;20.010;2024-03-08T08:56:21;5.60;90.40
51175;DHT22;37240;50.104;20.010;2024-03-08T09:01:22;5.60;90.30
51175;DHT22;37240;50.104;20.010;2024-03-08T09:06:23;5.60;90.30
51175;DHT22;37240;50.104;20.010;2024-03-08T09:11:23;5.70;90.60
51175;DHT22;37240;50.104;20.010;2024-03-08T09:16:24;6.00;91.00
51175;DHT22;37240;50.104;20.010;2024-03-08T09:21:24;6.30;89.30
51175;DHT22;37240;50.104;20.010;2024-03-08T09:26:25;6.50;87.40
51175;DHT22;37240;50.104;20.010;2024-03-08T09:31:26;6.20;87.10
51175;DHT22;37240;50.104;20.010;2024-03-08T09:36:26;6.00;89.00
51175;DHT22;37240;50.104;20.010;2024-03-08T09:41:27;5.80;89.20
51175;DHT22;37240;50.104;20.010;2024-03-08T09:46:27;5.60;90.10
51175;DHT22;37240;50.104;20.010;2024-03-08T09:51:29;5.70;90.60
51175;DHT22;37240;50.104;20.010;2024-03-08T09:56:32;6.00;90.00
51175;DHT22;37240;50.104;20.010;2024-03-08T10:01:33;6.30;88.10
51175;DHT22;37240;50.104;20.010;2024-03-08T10:06:33;6.40;87.00
51175;DHT22;37240;50.104;20.010;2024-03-08T10:11:34;6.60;87.50
51175;DHT22;37240;50.104;20.010;2024-03-08T10:16:35;6.80;85.70
51175;DHT22;37240;50.104;20.010;2024-03-08T10:21:35;7.20;85.10
51175;DHT22;37240;50.104;20.010;2024-03-08T10:26:37;7.20;84.50
51175;DHT22;37240;50.104;20.010;2024-03-08T10:31:37;7.00;83.30
51175;DHT22;37240;50.104;20.010;2024-03-08T10:36:39;6.90;84.70
51175;DHT22;37240;50.104;20.010;2024-03-08T10:41:42;7.00;85.50
51175;DHT22;37240;50.104;20.010;2024-03-08T10:52:14;7.10;85.30
51175;DHT22;37240;50.104;20.010;2024-03-08T10:57:17;7.10;87.10
51175;DHT22;37240;50.104;20.010;2024-03-08T11:02:19;7.10;87.30
51175;DHT22;37240;50.104;20.010;2024-03-08T11:07:20;7.00;88.70
51175;DHT22;37240;50.104;20.010;2024-03-08T11:12:24;7.00;88.90
51175;DHT22;37240;50.104;20.010;2024-03-08T11:27:53;7.20;88.50
51175;DHT22;37240;50.104;20.010;2024-03-08T11:33:11;7.20;86.80
51175;DHT22;37240;50.104;20.010;2024-03-08T11:38:12;7.10;87.70
51175;DHT22;37240;50.104;20.010;2024-03-08T11:43:13;7.10;88.00
51175;DHT22;37240;50.104;20.010;2024-03-08T11:48:13;7.10;89.00
51175;DHT22;37240;50.104;20.010;2024-03-08T11:53:16;7.30;89.30
51175;DHT22;37240;50.104;20.010;2024-03-08T11:58:16;7.30;88.30
51175;DHT22;37240;50.104;20.010;2024-03-08T12:03:17;7.60;88.80
51175;DHT22;37240;50.104;20.010;2024-03-08T12:08:17;7.60;88.30
51175;DHT22;37240;50.104;20.010;2024-03-08T12:13:18;7.60;86.80
51175;DHT22;37240;50.104;20.010;2024-03-08T12:18:19;7.60;86.80
51175;DHT22;37240;50.104;20.010;2024-03-08T12:23:19;7.70;86.60
51175;DHT22;37240;50.104;20.010;2024-03-08T12:28:20;7.70;86.00
51175;DHT22;37240;50.104;20.010;2024-03-08T12:33:20;7.50;85.60
51175;DHT22;37240;50.104;20.010;2024-03-08T12:38:22;7.40;87.10
51175;DHT22;37240;50.104;20.010;2024-03-08T12:43:22;7.50;87.20
51175;DHT22;37240;50.104;20.010;2024-03-08T12:48:23;7.50;87.60
51175;DHT22;37240;50.104;20.010;2024-03-08T12:53:23;7.50;87.60
51175;DHT22;37240;50.104;20.010;2024-03-08T12:58:24;7.60;87.80
51175;DHT22;37240;50.104;20.010;2024-03-08T13:03:25;7.50;88.30
51175;DHT22;37240;50.104;20.010;2024-03-08T13:08:26;7.60;87.40
51175;DHT22;37240;50.104;20.010;2024-03-08T13:13:26;7.70;87.10
51175;DHT22;37240;50.104;20.010;2024-03-08T13:18:27;7.80;86.40
51175;DHT22;37240;50.104;20.010;2024-03-08T13:23:36;7.80;86.60
51175;DHT22;37240;50.104;20.010;2024-03-08T13:28:36;8.00;86.60
51175;DHT22;37240;50.104;20.010;2024-03-08T13:33:39;7.90;86.00
51175;DHT22;37240;50.104;20.010;2024-03-08T13:38:44;7.90;88.10
51175;DHT22;37240;50.104;20.010;2024-03-08T13:43:46;7.80;87.20
51175;DHT22;37240;50.104;20.010;2024-03-08T13:48:47;7.90;86.50
51175;DHT22;37240;50.104;20.010;2024-03-08T13:53:47;7.90;87.00
51175;DHT22;37240;50.104;20.010;2024-03-08T13:58:48;7.70;88.60
51175;DHT22;37240;50.104;20.010;2024-03-08T14:03:49;7.80;88.00
51175;DHT22;37240;50.104;20.010;2024-03-08T14:08:49;7.90;87.20
51175;DHT22;37240;50.104;20.010;2024-03-08T14:13:50;8.00;87.00
51175;DHT22;37240;50.104;20.010;2024-03-08T14:18:51;8.00;86.80
51175;DHT22;37240;50.104;20.010;2024-03-08T14:23:51;8.00;87.80
51175;DHT22;37240;50.104;20.010;2024-03-08T14:28:52;8.00;87.40
51175;DHT22;37240;50.104;20.010;2024-03-08T14:33:52;8.00;87.80
51175;DHT22;37240;50.104;20.010;2024-03-08T14:38:53;8.00;87.00
51175;DHT22;37240;50.104;20.010;2024-03-08T14:43:54;8.10;87.60
51175;DHT22;37240;50.104;20.010;2024-03-08T14:48:54;8.00;87.00
51175;DHT22;37240;50.104;20.010;2024-03-08T14:53:55;8.10;86.90
51175;DHT22;37240;50.104;20.010;2024-03-08T14:58:55;8.10;85.60
51175;DHT22;37240;50.104;20.010;2024-03-08T15:03:56;8.10;85.90
51175;DHT22;37240;50.104;20.010;2024-03-08T15:08:56;8.10;85.30
51175;DHT22;37240;50.104;20.010;2024-03-08T15:13:57;8.20;85.90
51175;DHT22;37240;50.104;20.010;2024-03-08T15:18:58;8.10;86.90
51175;DHT22;37240;50.104;20.010;2024-03-08T15:23:58;8.20;86.80
51175;DHT22;37240;50.104;20.010;2024-03-08T15:28:59;8.20;86.10
51175;DHT22;37240;50.104;20.010;2024-03-08T15:33:59;8.30;87.40
51175;DHT22;37240;50.104;20.010;2024-03-08T15:39:00;8.30;86.60
51175;DHT22;37240;50.104;20.010;2024-03-08T15:44:00;8.30;86.00
51175;DHT22;37240;50.104;20.010;2024-03-08T15:49:01;8.30;85.30
51175;DHT22;37240;50.104;20.010;2024-03-08T15:54:02;8.30;85.90
51175;DHT22;37240;50.104;20.010;2024-03-08T15:59:03;8.20;86.80
51175;DHT22;37240;50.104;20.010;2024-03-08T16:04:03;8.40;86.20
51175;DHT22;37240;50.104;20.010;2024-03-08T16:09:04;8.20;87.40
51175;DHT22;37240;50.104;20.010;2024-03-08T16:14:04;8.20;87.40
51175;DHT22;37240;50.104;20.010;2024-03-08T16:19:05;8.20;87.00
51175;DHT22;37240;50.104;20.010;2024-03-08T16:24:06;8.20;87.10
51175;DHT22;37240;50.104;20.010;2024-03-08T16:29:06;8.20;86.90
51175;DHT22;37240;50.104;20.010;2024-03-08T16:34:07;8.20;87.40
51175;DHT22;37240;50.104;20.010;2024-03-08T16:39:07;8.10;87.40
51175;DHT22;37240;50.104;20.010;2024-03-08T16:44:08;8.00;88.00
51175;DHT22;37240;50.104;20.010;2024-03-08T16:49:08;8.00;88.00
51175;DHT22;37240;50.104;20.010;2024-03-08T16:54:09;8.00;88.50
51175;DHT22;37240;50.104;20.010;2024-03-08T16:59:09;7.90;88.50
51175;DHT22;37240;50.104;20.010;2024-03-08T17:04:10;7.90;89.10
51175;DHT22;37240;50.104;20.010;2024-03-08T17:09:10;7.80;89.60
51175;DHT22;37240;50.104;20.010;2024-03-08T17:14:11;7.90;89.50
51175;DHT22;37240;50.104;20.010;2024-03-08T17:19:11;7.80;90.00
51175;DHT22;37240;50.104;20.010;2024-03-08T17:24:12;7.80;90.10
51175;DHT22;37240;50.104;20.010;2024-03-08T17:29:12;7.70;90.40
51175;DHT22;37240;50.104;20.010;2024-03-08T17:34:13;7.70;90.50
51175;DHT22;37240;50.104;20.010;2024-03-08T17:39:14;7.60;90.70
51175;DHT22;37240;50.104;20.010;2024-03-08T17:44:18;7.60;90.90
51175;DHT22;37240;50.104;20.010;2024-03-08T17:49:18;7.50;91.10
51175;DHT22;37240;50.104;20.010;2024-03-08T17:54:19;7.50;91.20
51175;DHT22;37240;50.104;20.010;2024-03-08T17:59:19;7.40;91.40
51175;DHT22;37240;50.104;20.010;2024-03-08T18:04:20;7.30;91.70
51175;DHT22;37240;50.104;20.010;2024-03-08T18:09:20;7.30;91.80
51175;DHT22;37240;50.104;20.010;2024-03-08T18:14:21;7.20;92.00
51175;DHT22;37240;50.104;20.010;2024-03-08T18:19:21;7.10;92.60
51175;DHT22;37240;50.104;20.010;2024-03-08T18:24:22;7.00;92.90
51175;DHT22;37240;50.104;20.010;2024-03-08T18:29:22;7.00;93.10
51175;DHT22;37240;50.104;20.010;2024-03-08T18:34:23;6.80;93.30
51175;DHT22;37240;50.104;20.010;2024-03-08T18:39:24;6.90;93.50
51175;DHT22;37240;50.104;20.010;2024-03-08T18:44:24;6.80;93.80
51175;DHT22;37240;50.104;20.010;2024-03-08T18:49:25;6.70;94.20
51175;DHT22;37240;50.104;20.010;2024-03-08T18:54:25;6.70;94.60
51175;DHT22;37240;50.104;20.010;2024-03-08T18:59:26;6.60;95.20
51175;DHT22;37240;50.104;20.010;2024-03-08T19:04:26;6.50;95.10
51175;DHT22;37240;50.104;20.010;2024-03-08T19:09:27;6.60;95.20
51175;DHT22;37240;50.104;20.010;2024-03-08T19:14:27;6.50;95.40
51175;DHT22;37240;50.104;20.010;2024-03-08T19:19:28;6.40;95.40
51175;DHT22;37240;50.104;20.010;2024-03-08T19:24:28;6.50;95.60
51175;DHT22;37240;50.104;20.010;2024-03-08T19:29:29;6.40;95.60
51175;DHT22;37240;50.104;20.010;2024-03-08T19:34:29;6.50;95.70
51175;DHT22;37240;50.104;20.010;2024-03-08T19:39:30;6.40;95.70
51175;DHT22;37240;50.104;20.010;2024-03-08T19:44:30;6.30;95.80
51175;DHT22;37240;50.104;20.010;2024-03-08T19:49:31;6.20;96.10
51175;DHT22;37240;50.104;20.010;2024-03-08T19:54:31;6.10;96.20
51175;DHT22;37240;50.104;20.010;2024-03-08T19:59:33;6.10;96.50
51175;DHT22;37240;50.104;20.010;2024-03-08T20:04:34;6.10;96.40
51175;DHT22;37240;50.104;20.010;2024-03-08T20:09:34;6.00;96.60
51175;DHT22;37240;50.104;20.010;2024-03-08T20:14:35;5.90;96.80
51175;DHT22;37240;50.104;20.010;2024-03-08T20:19:35;6.00;97.00
51175;DHT22;37240;50.104;20.010;2024-03-08T20:24:36;5.80;96.80
51175;DHT22;37240;50.104;20.010;2024-03-08T20:29:36;6.00;96.90
51175;DHT22;37240;50.104;20.010;2024-03-08T20:34:37;6.10;96.20
51175;DHT22;37240;50.104;20.010;2024-03-08T20:39:38;6.10;96.10
51175;DHT22;37240;50.104;20.010;2024-03-08T20:44:38;6.10;96.20
51175;DHT22;37240;50.104;20.010;2024-03-08T20:49:39;6.00;96.30
51175;DHT22;37240;50.104;20.010;2024-03-08T20:54:39;6.00;96.30
51175;DHT22;37240;50.104;20.010;2024-03-08T20:59:40;6.00;96.20
51175;DHT22;37240;50.104;20.010;2024-03-08T21:04:40;6.10;96.30
51175;DHT22;37240;50.104;20.010;2024-03-08T21:09:41;5.90;96.40
51175;DHT22;37240;50.104;20.010;2024-03-08T21:14:41;5.80;96.60
51175;DHT22;37240;50.104;20.010;2024-03-08T21:19:42;5.80;96.80
51175;DHT22;37240;50.104;20.010;2024-03-08T21:24:42;5.80;96.70
51175;DHT22;37240;50.104;20.010;2024-03-08T21:29:43;5.80;96.60
51175;DHT22;37240;50.104;20.010;2024-03-08T21:34:43;5.60;97.00
51175;DHT22;37240;50.104;20.010;2024-03-08T21:39:44;5.60;97.00
51175;DHT22;37240;50.104;20.010;2024-03-08T21:44:44;5.60;97.10
51175;DHT22;37240;50.104;20.010;2024-03-08T21:49:45;5.60;97.30
51175;DHT22;37240;50.104;20.010;2024-03-08T21:54:45;5.50;97.10
51175;DHT22;37240;50.104;20.010;2024-03-08T21:59:46;5.50;97.40
51175;DHT22;37240;50.104;20.010;2024-03-08T22:04:47;5.40;97.40
51175;DHT22;37240;50.104;20.010;2024-03-08T22:09:47;5.40;97.50
51175;DHT22;37240;50.104;20.010;2024-03-08T22:14:48;5.50;97.30
51175;DHT22;37240;50.104;20.010;2024-03-08T22:19:48;5.50;97.10
51175;DHT22;37240;50.104;20.010;2024-03-08T22:24:49;5.50;97.10
51175;DHT22;37240;50.104;20.010;2024-03-08T22:29:49;5.40;97.00
51175;DHT22;37240;50.104;20.010;2024-03-08T22:34:50;5.40;97.20
51175;DHT22;37240;50.104;20.010;2024-03-08T22:39:50;5.40;97.10
51175;DHT22;37240;50.104;20.010;2024-03-08T22:44:51;5.30;97.20
51175;DHT22;37240;50.104;20.010;2024-03-08T22:49:51;5.10;97.60
51175;DHT22;37240;50.104;20.010;2024-03-08T22:54:52;5.10;97.60
51175;DHT22;37240;50.104;20.010;2024-03-08T22:59:52;5.10;98.00
51175;DHT22;37240;50.104;20.010;2024-03-08T23:04:53;5.10;98.00
51175;DHT22;37240;50.104;20.010;2024-03-08T23:09:54;4.80;98.20
51175;DHT22;37240;50.104;20.010;2024-03-08T23:14:54;4.80;98.50
51175;DHT22;37240;50.104;20.010;2024-03-08T23:19:55;4.80;98.60
51175;DHT22;37240;50.104;20.010;2024-03-08T23:24:55;4.70;98.60
51175;DHT22;37240;50.104;20.010;2024-03-08T23:29:56;4.70;98.80
51175;DHT22;37240;50.104;20.010;2024-03-08T23:34:56;4.60;99.10
51175;DHT22;37240;50.104;20.010;2024-03-08T23:39:57;4.60;99.50
51175;DHT22;37240;50.104;20.010;2024-03-08T23:44:57;4.60;99.60
51175;DHT22;37240;50.104;20.010;2024-03-08T23:49:58;4.40;99.80
51175;DHT22;37240;50.104;20.010;2024-03-08T23:54:58;4.50;99.80
51175;DHT22;37240;50.104;20.010;2024-03-08T23:59:59;4.40;99.90
